createdAt,value
2019-03-15T00:00:46.898Z,965.6
2019-03-15T00:01:48.160Z,965.5
2019-03-15T00:02:49.432Z,965.5
2019-03-15T00:03:50.758Z,965.5
2019-03-15T00:04:52.268Z,965.6
2019-03-15T00:05:53.542Z,965.6
2019-03-15T00:06:54.801Z,965.5
2019-03-15T00:07:56.525Z,965.6
2019-03-15T00:08:58.221Z,965.5
2019-03-15T00:09:59.470Z,965.7
2019-03-15T00:11:00.850Z,965.7
2019-03-15T00:12:02.132Z,965.7
2019-03-15T00:13:04.499Z,965.4
2019-03-15T00:14:09.398Z,965.7
2019-03-15T00:15:10.650Z,965.7
2019-03-15T00:16:11.904Z,965.7
2019-03-15T00:17:13.157Z,965.8
2019-03-15T00:18:16.548Z,965.8
2019-03-15T00:19:17.796Z,965.7
2019-03-15T00:20:19.070Z,965.8
2019-03-15T00:21:20.316Z,965.9
2019-03-15T00:22:21.580Z,965.8
2019-03-15T00:23:22.936Z,965.8
2019-03-15T00:24:24.200Z,966
2019-03-15T00:25:25.449Z,965.8
2019-03-15T00:26:26.727Z,965.8
2019-03-15T00:27:27.986Z,966
2019-03-15T00:28:29.274Z,966
2019-03-15T00:29:30.547Z,966.2
2019-03-15T00:30:31.826Z,966.1
2019-03-15T00:31:33.078Z,966.1
2019-03-15T00:32:36.062Z,966.1
2019-03-15T00:33:37.362Z,966.1
2019-03-15T00:34:38.624Z,966.1
2019-03-15T00:35:43.173Z,966
2019-03-15T00:36:46.700Z,966.1
2019-03-15T00:37:47.967Z,966.1
2019-03-15T00:38:49.767Z,966.2
2019-03-15T00:39:51.037Z,966.1
2019-03-15T00:40:52.289Z,966.1
2019-03-15T00:41:58.032Z,966.3
2019-03-15T00:42:59.268Z,966.3
2019-03-15T00:44:00.560Z,966.2
2019-03-15T00:45:01.826Z,966.2
2019-03-15T00:46:03.098Z,966.1
2019-03-15T00:47:04.364Z,966.2
2019-03-15T00:48:05.624Z,966.3
2019-03-15T00:49:06.908Z,966.2
2019-03-15T00:50:08.196Z,966.2
2019-03-15T00:51:09.456Z,966.2
2019-03-15T00:52:10.724Z,966.1
2019-03-15T00:53:11.971Z,966.2
2019-03-15T00:54:13.272Z,966.2
2019-03-15T00:55:14.869Z,966.3
2019-03-15T00:56:16.138Z,966.3
2019-03-15T00:57:17.420Z,966.3
2019-03-15T00:58:18.668Z,966.3
2019-03-15T00:59:19.970Z,966.3
2019-03-15T01:00:21.280Z,966.1
2019-03-15T01:01:22.546Z,966.1
2019-03-15T01:02:23.799Z,966.3
2019-03-15T01:03:25.060Z,966.3
2019-03-15T01:04:26.350Z,966.3
2019-03-15T01:05:27.795Z,966.2
2019-03-15T01:06:29.042Z,966.2
2019-03-15T01:07:30.291Z,966.2
2019-03-15T01:08:31.704Z,966.3
2019-03-15T01:09:33.493Z,966.1
2019-03-15T01:10:34.823Z,966.2
2019-03-15T01:11:36.068Z,966.3
2019-03-15T01:12:37.370Z,966.3
2019-03-15T01:13:38.832Z,966.2
2019-03-15T01:14:40.516Z,966.2
2019-03-15T01:15:44.117Z,966.3
2019-03-15T01:16:45.484Z,966.2
2019-03-15T01:17:46.764Z,966.2
2019-03-15T01:18:48.073Z,966.3
2019-03-15T01:19:49.410Z,966.3
2019-03-15T01:20:50.672Z,966.3
2019-03-15T01:21:51.924Z,966.3
2019-03-15T01:22:53.547Z,966.4
2019-03-15T01:23:54.815Z,966.4
2019-03-15T01:24:56.527Z,966.5
2019-03-15T01:25:58.248Z,966.4
2019-03-15T01:27:05.740Z,966.4
2019-03-15T01:28:07.400Z,966.4
2019-03-15T01:29:08.665Z,966.4
2019-03-15T01:30:11.793Z,966.4
2019-03-15T01:31:13.094Z,966.3
2019-03-15T01:32:14.370Z,966.4
2019-03-15T01:33:15.619Z,966.4
2019-03-15T01:34:16.949Z,966.5
2019-03-15T01:35:18.240Z,966.4
2019-03-15T01:36:19.503Z,966.4
2019-03-15T01:37:21.822Z,966.5
2019-03-15T01:38:25.278Z,966.4
2019-03-15T01:39:26.539Z,966.5
2019-03-15T01:40:27.884Z,966.3
2019-03-15T01:41:30.193Z,966.5
2019-03-15T01:42:31.693Z,966.4
2019-03-15T01:43:32.963Z,966.5
2019-03-15T01:44:34.260Z,966.4
2019-03-15T01:45:35.739Z,966.4
2019-03-15T01:46:37.019Z,966.6
2019-03-15T01:47:38.286Z,966.6
2019-03-15T01:48:39.573Z,966.5
2019-03-15T01:49:40.853Z,966.6
2019-03-15T01:50:42.193Z,966.5
2019-03-15T01:51:43.475Z,966.4
2019-03-15T01:52:44.729Z,966.7
2019-03-15T01:53:45.994Z,966.5
2019-03-15T01:54:47.867Z,966.6
2019-03-15T01:55:51.295Z,966.3
2019-03-15T01:56:52.549Z,966.6
2019-03-15T01:57:53.858Z,966.5
2019-03-15T01:58:55.688Z,966.5
2019-03-15T01:59:56.971Z,966.5
2019-03-15T02:00:58.443Z,966.5
2019-03-15T02:01:59.773Z,966.5
2019-03-15T02:03:03.201Z,966.5
2019-03-15T02:04:05.581Z,966.7
2019-03-15T02:05:07.042Z,966.6
2019-03-15T02:06:08.491Z,966.6
2019-03-15T02:07:09.968Z,966.7
2019-03-15T02:08:13.359Z,966.5
2019-03-15T02:09:14.872Z,966.5
2019-03-15T02:10:16.205Z,966.7
2019-03-15T02:11:17.747Z,966.7
2019-03-15T02:12:19.051Z,966.7
2019-03-15T02:13:20.337Z,966.6
2019-03-15T02:14:21.591Z,966.7
2019-03-15T02:15:22.911Z,966.6
2019-03-15T02:16:24.202Z,966.6
2019-03-15T02:17:25.671Z,966.8
2019-03-15T02:18:27.671Z,966.7
2019-03-15T02:19:29.289Z,966.2
2019-03-15T02:20:30.563Z,966.5
2019-03-15T02:21:31.929Z,966.5
2019-03-15T02:22:34.268Z,966.6
2019-03-15T02:23:35.539Z,966.7
2019-03-15T02:24:36.795Z,966.7
2019-03-15T02:25:38.087Z,966.6
2019-03-15T02:26:39.471Z,966.7
2019-03-15T02:27:40.854Z,966.7
2019-03-15T02:28:42.169Z,966.6
2019-03-15T02:29:43.414Z,966.6
2019-03-15T02:30:44.992Z,966.6
2019-03-15T02:31:47.873Z,966.7
2019-03-15T02:32:49.129Z,966.7
2019-03-15T02:33:50.535Z,966.7
2019-03-15T02:34:51.849Z,966.8
2019-03-15T02:35:53.151Z,966.6
2019-03-15T02:36:55.166Z,966.9
2019-03-15T02:37:56.499Z,967
2019-03-15T02:38:57.779Z,966.9
2019-03-15T02:39:59.088Z,966.9
2019-03-15T02:41:00.365Z,967
2019-03-15T02:42:01.847Z,966.9
2019-03-15T02:43:03.120Z,967
2019-03-15T02:44:04.677Z,967
2019-03-15T02:45:07.073Z,966.9
2019-03-15T02:46:08.337Z,967
2019-03-15T02:47:09.677Z,967
2019-03-15T02:48:11.132Z,966.9
2019-03-15T02:49:12.397Z,966.8
2019-03-15T02:50:13.769Z,966.8
2019-03-15T02:51:15.115Z,966.9
2019-03-15T02:52:16.765Z,966.9
2019-03-15T02:53:19.311Z,966.9
2019-03-15T02:54:20.577Z,966.9
2019-03-15T02:55:22.143Z,966.8
2019-03-15T02:56:23.422Z,966.9
2019-03-15T02:57:24.787Z,967
2019-03-15T02:58:28.771Z,966.9
2019-03-15T02:59:32.897Z,966.9
2019-03-15T03:00:34.173Z,967
2019-03-15T03:01:35.488Z,966.8
2019-03-15T03:02:36.819Z,966.7
2019-03-15T03:03:38.215Z,966.8
2019-03-15T03:04:40.873Z,967
2019-03-15T03:05:42.349Z,967
2019-03-15T03:06:45.341Z,967
2019-03-15T03:07:48.925Z,967
2019-03-15T03:08:50.179Z,966.8
2019-03-15T03:09:51.445Z,967
2019-03-15T03:10:53.002Z,967
2019-03-15T03:11:54.352Z,967
2019-03-15T03:12:56.101Z,967.2
2019-03-15T03:13:57.365Z,967
2019-03-15T03:14:59.399Z,966.6
2019-03-15T03:16:03.015Z,966.8
2019-03-15T03:17:04.298Z,966.9
2019-03-15T03:18:05.657Z,967
2019-03-15T03:19:08.018Z,967.1
2019-03-15T03:20:09.327Z,967
2019-03-15T03:21:11.158Z,967.1
2019-03-15T03:22:12.409Z,967.1
2019-03-15T03:23:13.745Z,967.1
2019-03-15T03:24:16.135Z,967.1
2019-03-15T03:25:18.297Z,967.1
2019-03-15T03:26:19.614Z,967.1
2019-03-15T03:27:20.865Z,967.2
2019-03-15T03:28:22.211Z,967.2
2019-03-15T03:29:23.555Z,967.2
2019-03-15T03:30:24.829Z,967.2
2019-03-15T03:31:26.115Z,967
2019-03-15T03:32:27.397Z,967
2019-03-15T03:33:28.729Z,967.1
2019-03-15T03:34:30.013Z,967.1
2019-03-15T03:35:31.300Z,967.1
2019-03-15T03:36:32.573Z,967.2
2019-03-15T03:37:33.849Z,967.2
2019-03-15T03:38:35.172Z,967.1
2019-03-15T03:39:36.454Z,967
2019-03-15T03:40:37.711Z,967.1
2019-03-15T03:41:39.015Z,967
2019-03-15T03:42:40.282Z,967.2
2019-03-15T03:43:41.914Z,967.3
2019-03-15T03:44:44.372Z,967.2
2019-03-15T03:45:48.394Z,967.2
2019-03-15T03:46:49.675Z,967.3
2019-03-15T03:47:50.977Z,967.4
2019-03-15T03:48:52.271Z,967.2
2019-03-15T03:49:54.318Z,967.1
2019-03-15T03:50:55.596Z,967.3
2019-03-15T03:51:57.215Z,967.2
2019-03-15T03:53:00.113Z,967.3
2019-03-15T03:54:01.400Z,967.1
2019-03-15T03:55:02.661Z,967.2
2019-03-15T03:56:03.963Z,967.1
2019-03-15T03:57:05.224Z,967.1
2019-03-15T03:58:06.488Z,967.3
2019-03-15T03:59:08.098Z,967.4
2019-03-15T04:00:09.364Z,967.4
2019-03-15T04:01:10.638Z,967.3
2019-03-15T04:02:11.967Z,967.2
2019-03-15T04:03:13.288Z,967.2
2019-03-15T04:04:15.696Z,967.3
2019-03-15T04:05:16.956Z,967.3
2019-03-15T04:06:18.218Z,967.4
2019-03-15T04:07:19.481Z,967.2
2019-03-15T04:08:20.850Z,967.3
2019-03-15T04:09:22.148Z,967.3
2019-03-15T04:10:23.429Z,967.3
2019-03-15T04:11:27.695Z,967.4
2019-03-15T04:12:28.976Z,967.4
2019-03-15T04:13:30.276Z,967.3
2019-03-15T04:14:31.695Z,967.2
2019-03-15T04:15:32.945Z,967.2
2019-03-15T04:16:34.200Z,967.2
2019-03-15T04:17:35.458Z,967.3
2019-03-15T04:18:36.806Z,967.3
2019-03-15T04:19:38.570Z,967.2
2019-03-15T04:20:39.846Z,967.3
2019-03-15T04:21:41.220Z,967.3
2019-03-15T04:22:42.526Z,967.3
2019-03-15T04:23:43.920Z,967.3
2019-03-15T04:24:45.224Z,967.3
2019-03-15T04:25:46.560Z,967.3
2019-03-15T04:26:47.863Z,967.3
2019-03-15T04:27:49.254Z,967.2
2019-03-15T04:28:50.602Z,967.2
2019-03-15T04:29:51.956Z,967.4
2019-03-15T04:30:53.930Z,967.4
2019-03-15T04:31:55.237Z,967.4
2019-03-15T04:32:56.946Z,967.5
2019-03-15T04:33:58.379Z,967.4
2019-03-15T04:34:59.754Z,967.4
2019-03-15T04:36:01.166Z,967.4
2019-03-15T04:37:02.468Z,967.4
2019-03-15T04:38:03.740Z,967.3
2019-03-15T04:39:05.004Z,967.4
2019-03-15T04:40:06.302Z,967.4
2019-03-15T04:41:07.600Z,967.4
2019-03-15T04:42:09.110Z,967.2
2019-03-15T04:43:10.396Z,967.4
2019-03-15T04:44:11.733Z,967.3
2019-03-15T04:45:13.271Z,967.4
2019-03-15T04:46:14.570Z,967.4
2019-03-15T04:47:17.522Z,967.4
2019-03-15T04:48:18.884Z,967.3
2019-03-15T04:49:20.188Z,967.4
2019-03-15T04:50:21.884Z,967.3
2019-03-15T04:51:23.438Z,967.5
2019-03-15T04:52:24.748Z,967.4
2019-03-15T04:53:26.024Z,967.3
2019-03-15T04:54:27.276Z,967.4
2019-03-15T04:55:28.684Z,967.3
2019-03-15T04:56:29.981Z,967.3
2019-03-15T04:57:33.460Z,967.3
2019-03-15T04:58:34.814Z,967.3
2019-03-15T04:59:36.312Z,967.1
2019-03-15T05:00:37.680Z,967.4
2019-03-15T05:01:38.980Z,967.3
2019-03-15T05:02:40.298Z,967.4
2019-03-15T05:03:41.920Z,967.4
2019-03-15T05:04:43.408Z,967.4
2019-03-15T05:05:44.746Z,967.4
2019-03-15T05:06:46.020Z,967.4
2019-03-15T05:07:47.562Z,967.5
2019-03-15T05:08:48.830Z,967.4
2019-03-15T05:09:50.454Z,967.4
2019-03-15T05:10:51.830Z,967.5
2019-03-15T05:11:53.104Z,967.5
2019-03-15T05:12:55.380Z,967.5
2019-03-15T05:14:00.024Z,967.5
2019-03-15T05:15:01.359Z,967.4
2019-03-15T05:16:03.262Z,967.5
2019-03-15T05:17:04.543Z,967.5
2019-03-15T05:18:05.828Z,967.3
2019-03-15T05:19:07.124Z,967.3
2019-03-15T05:20:08.563Z,967.5
2019-03-15T05:21:11.191Z,967.5
2019-03-15T05:22:12.513Z,967.6
2019-03-15T05:23:13.806Z,967.5
2019-03-15T05:24:15.072Z,967.6
2019-03-15T05:25:20.413Z,967.6
2019-03-15T05:26:21.864Z,967.6
2019-03-15T05:27:25.082Z,967.7
2019-03-15T05:28:27.550Z,967.7
2019-03-15T05:29:28.843Z,967.8
2019-03-15T05:30:30.124Z,967.8
2019-03-15T05:31:31.422Z,967.7
2019-03-15T05:32:32.738Z,967.6
2019-03-15T05:33:34.124Z,967.6
2019-03-15T05:34:35.408Z,967.6
2019-03-15T05:35:36.769Z,967.6
2019-03-15T05:36:38.464Z,967.6
2019-03-15T05:37:39.710Z,967.6
2019-03-15T05:38:40.986Z,967.6
2019-03-15T05:39:42.248Z,967.7
2019-03-15T05:40:43.574Z,967.7
2019-03-15T05:41:44.897Z,967.6
2019-03-15T05:42:46.168Z,967.6
2019-03-15T05:43:47.504Z,967.6
2019-03-15T05:44:48.778Z,967.5
2019-03-15T05:45:50.044Z,967.6
2019-03-15T05:46:51.410Z,967.6
2019-03-15T05:47:52.783Z,967.6
2019-03-15T05:48:54.035Z,967.7
2019-03-15T05:49:55.333Z,967.6
2019-03-15T05:50:56.630Z,967.6
2019-03-15T05:51:58.262Z,967.6
2019-03-15T05:52:59.654Z,967.5
2019-03-15T05:54:01.266Z,967.5
2019-03-15T05:55:02.550Z,967.6
2019-03-15T05:56:03.811Z,967.5
2019-03-15T05:57:06.159Z,967.6
2019-03-15T05:58:07.461Z,967.5
2019-03-15T05:59:11.380Z,967.6
2019-03-15T06:00:12.759Z,967.5
2019-03-15T06:01:14.049Z,967.5
2019-03-15T06:02:17.908Z,967.5
2019-03-15T06:03:19.216Z,967.5
2019-03-15T06:04:20.513Z,967.4
2019-03-15T06:05:21.776Z,967.4
2019-03-15T06:06:26.462Z,967.4
2019-03-15T06:07:27.804Z,967.4
2019-03-15T06:08:29.072Z,967.5
2019-03-15T06:09:30.452Z,967.5
2019-03-15T06:10:31.820Z,967.4
2019-03-15T06:11:35.336Z,967.3
2019-03-15T06:12:36.942Z,967.4
2019-03-15T06:13:40.631Z,967.3
2019-03-15T06:14:41.926Z,967.4
2019-03-15T06:15:43.208Z,967.3
2019-03-15T06:16:44.596Z,967.4
2019-03-15T06:17:47.265Z,967.4
2019-03-15T06:18:48.628Z,967.4
2019-03-15T06:19:49.888Z,967.3
2019-03-15T06:20:51.613Z,967.2
2019-03-15T06:21:52.912Z,967.3
2019-03-15T06:22:54.267Z,967.3
2019-03-15T06:23:55.562Z,967.4
2019-03-15T06:24:56.852Z,967.3
2019-03-15T06:25:58.164Z,967.2
2019-03-15T06:26:59.441Z,967.2
2019-03-15T06:28:00.776Z,967.2
2019-03-15T06:29:02.579Z,967.2
2019-03-15T06:30:03.875Z,967.3
2019-03-15T06:31:05.129Z,967.3
2019-03-15T06:32:06.667Z,967.2
2019-03-15T06:33:08.115Z,967.2
2019-03-15T06:34:09.372Z,967.2
2019-03-15T06:35:10.862Z,967.2
2019-03-15T06:36:12.809Z,967.2
2019-03-15T06:37:14.305Z,967.2
2019-03-15T06:38:15.598Z,967.2
2019-03-15T06:39:16.925Z,967.2
2019-03-15T06:40:18.541Z,967.2
2019-03-15T06:41:19.903Z,967.2
2019-03-15T06:42:21.331Z,967.3
2019-03-15T06:43:23.047Z,967.2
2019-03-15T06:44:27.224Z,967.2
2019-03-15T06:45:28.904Z,967.2
2019-03-15T06:46:30.181Z,967.2
2019-03-15T06:47:31.543Z,967.3
2019-03-15T06:48:32.894Z,967.3
2019-03-15T06:49:34.783Z,967.3
2019-03-15T06:50:37.443Z,967.2
2019-03-15T06:51:40.930Z,967.1
2019-03-15T06:52:42.299Z,967.2
2019-03-15T06:53:46.498Z,967.2
2019-03-15T06:54:49.170Z,967.2
2019-03-15T06:55:52.081Z,967.2
2019-03-15T06:56:53.333Z,967.1
2019-03-15T06:57:54.629Z,967.2
2019-03-15T06:58:55.967Z,967.1
2019-03-15T07:00:00.357Z,967.1
2019-03-15T07:01:01.661Z,967.1
2019-03-15T07:02:02.993Z,967.2
2019-03-15T07:03:04.273Z,967.2
2019-03-15T07:04:05.770Z,967.1
2019-03-15T07:05:07.048Z,967.1
2019-03-15T07:06:08.337Z,967.1
2019-03-15T07:07:10.394Z,967.1
2019-03-15T07:08:12.836Z,967
2019-03-15T07:09:14.239Z,967
2019-03-15T07:10:15.539Z,967.1
2019-03-15T07:11:16.817Z,967.1
2019-03-15T07:12:18.152Z,967.1
2019-03-15T07:13:19.472Z,967.1
2019-03-15T07:14:20.815Z,967.1
2019-03-15T07:15:22.175Z,967.1
2019-03-15T07:16:23.543Z,967
2019-03-15T07:17:25.053Z,967
2019-03-15T07:18:28.669Z,967
2019-03-15T07:19:31.403Z,967.1
2019-03-15T07:20:32.655Z,967.1
2019-03-15T07:21:37.321Z,967.1
2019-03-15T07:22:39.002Z,967
2019-03-15T07:23:40.245Z,967
2019-03-15T07:24:44.845Z,967
2019-03-15T07:25:46.207Z,967
2019-03-15T07:26:47.837Z,967
2019-03-15T07:27:49.084Z,967
2019-03-15T07:28:50.407Z,966.9
2019-03-15T07:29:51.716Z,967
2019-03-15T07:30:53.001Z,966.9
2019-03-15T07:31:54.255Z,967
2019-03-15T07:32:56.462Z,967
2019-03-15T07:33:57.855Z,967
2019-03-15T07:35:00.384Z,967
2019-03-15T07:36:01.648Z,967
2019-03-15T07:37:02.907Z,967
2019-03-15T07:38:07.547Z,967
2019-03-15T07:39:08.809Z,967
2019-03-15T07:40:10.148Z,966.9
2019-03-15T07:41:12.063Z,967
2019-03-15T07:42:13.473Z,966.7
2019-03-15T07:43:14.719Z,966.9
2019-03-15T07:44:16.080Z,966.9
2019-03-15T07:45:18.564Z,966.9
2019-03-15T07:46:19.880Z,966.8
2019-03-15T07:47:21.198Z,966.9
2019-03-15T07:48:26.767Z,966.9
2019-03-15T07:49:30.157Z,966.8
2019-03-15T07:50:31.531Z,966.8
2019-03-15T07:51:32.816Z,966.8
2019-03-15T07:52:34.106Z,967
2019-03-15T07:53:36.302Z,967
2019-03-15T07:54:39.178Z,966.8
2019-03-15T07:55:40.501Z,966.9
2019-03-15T07:56:41.820Z,966.9
2019-03-15T07:57:45.357Z,966.9
2019-03-15T07:58:46.625Z,966.9
2019-03-15T07:59:50.220Z,966.9
2019-03-15T08:00:51.512Z,966.8
2019-03-15T08:01:53.512Z,966.8
2019-03-15T08:02:54.849Z,966.9
2019-03-15T08:03:56.392Z,966.8
2019-03-15T08:04:57.666Z,966.8
2019-03-15T08:05:58.959Z,966.9
2019-03-15T08:07:00.201Z,966.9
2019-03-15T08:08:01.480Z,966.9
2019-03-15T08:09:02.773Z,966.9
2019-03-15T08:10:04.015Z,967
2019-03-15T08:11:05.346Z,967
2019-03-15T08:12:06.626Z,967
2019-03-15T08:13:08.270Z,966.9
2019-03-15T08:14:09.553Z,966.9
2019-03-15T08:15:10.814Z,967
2019-03-15T08:16:12.360Z,967
2019-03-15T08:17:14.088Z,967
2019-03-15T08:18:15.344Z,966.9
2019-03-15T08:19:19.032Z,966.8
2019-03-15T08:20:22.500Z,966.8
2019-03-15T08:21:23.841Z,966.8
2019-03-15T08:22:27.488Z,966.8
2019-03-15T08:23:29.208Z,966.7
2019-03-15T08:24:30.475Z,966.7
2019-03-15T08:25:31.778Z,966.8
2019-03-15T08:26:38.437Z,966.8
2019-03-15T08:27:39.732Z,966.8
2019-03-15T08:28:43.332Z,966.7
2019-03-15T08:29:44.585Z,966.8
2019-03-15T08:30:45.864Z,966.8
2019-03-15T08:31:47.855Z,966.8
2019-03-15T08:32:49.302Z,966.8
2019-03-15T08:33:50.621Z,966.8
2019-03-15T08:34:51.898Z,966.8
2019-03-15T08:35:53.192Z,966.8
2019-03-15T08:36:55.854Z,966.8
2019-03-15T08:37:59.492Z,966.8
2019-03-15T08:39:03.218Z,966.8
2019-03-15T08:40:05.056Z,966.8
2019-03-15T08:41:06.328Z,966.7
2019-03-15T08:42:07.619Z,966.8
2019-03-15T08:43:08.893Z,966.8
2019-03-15T08:44:11.304Z,966.7
2019-03-15T08:45:12.596Z,966.8
2019-03-15T08:46:13.986Z,966.7
2019-03-15T08:47:15.292Z,966.8
2019-03-15T08:48:16.544Z,966.8
2019-03-15T08:49:17.885Z,966.8
2019-03-15T08:50:24.351Z,966.7
2019-03-15T08:51:25.886Z,966.8
2019-03-15T08:52:27.434Z,966.8
2019-03-15T08:53:28.794Z,966.7
2019-03-15T08:54:33.376Z,966.8
2019-03-15T08:55:39.514Z,966.8
2019-03-15T08:56:42.257Z,966.7
2019-03-15T08:57:43.634Z,966.8
2019-03-15T08:58:45.176Z,966.7
2019-03-15T08:59:58.008Z,966.7
2019-03-15T09:00:59.406Z,966.7
2019-03-15T09:02:00.673Z,966.7
2019-03-15T09:03:02.018Z,966.7
2019-03-15T09:04:03.295Z,966.7
2019-03-15T09:05:04.620Z,966.7
2019-03-15T09:06:07.117Z,966.8
2019-03-15T09:07:08.392Z,966.7
2019-03-15T09:08:10.275Z,966.6
2019-03-15T09:09:11.544Z,966.7
2019-03-15T09:10:24.306Z,966.7
2019-03-15T09:11:25.978Z,966.7
2019-03-15T09:12:27.247Z,966.6
2019-03-15T09:13:28.570Z,966.7
2019-03-15T09:14:29.923Z,966.6
2019-03-15T09:15:31.777Z,966.6
2019-03-15T09:16:33.036Z,966.7
2019-03-15T09:17:34.324Z,966.6
2019-03-15T09:18:35.628Z,966.6
2019-03-15T09:19:38.489Z,966.6
2019-03-15T09:20:39.802Z,966.6
2019-03-15T09:21:41.401Z,966.5
2019-03-15T09:22:50.022Z,966.5
2019-03-15T09:23:51.782Z,966.5
2019-03-15T09:24:53.286Z,966.5
2019-03-15T09:25:54.578Z,966.5
2019-03-15T09:26:55.884Z,966.4
2019-03-15T09:27:57.158Z,966.4
2019-03-15T09:29:00.219Z,966.4
2019-03-15T09:30:01.610Z,966.4
2019-03-15T09:31:02.883Z,966.4
2019-03-15T09:32:10.363Z,966.4
2019-03-15T09:33:11.631Z,966.4
2019-03-15T09:34:13.929Z,966.4
2019-03-15T09:35:15.197Z,966.3
2019-03-15T09:36:16.801Z,966.3
2019-03-15T09:37:20.542Z,966.3
2019-03-15T09:38:21.852Z,966.3
2019-03-15T09:39:23.972Z,966.4
2019-03-15T09:40:26.766Z,966.3
2019-03-15T09:41:39.426Z,966.3
2019-03-15T09:42:41.814Z,966.2
2019-03-15T09:43:48.281Z,966.2
2019-03-15T09:44:49.573Z,966.2
2019-03-15T09:45:51.264Z,966.2
2019-03-15T09:46:52.830Z,966.2
2019-03-15T09:47:54.131Z,966.3
2019-03-15T09:48:55.401Z,966.3
2019-03-15T09:49:56.700Z,966.4
2019-03-15T09:50:58.451Z,966.2
2019-03-15T09:52:01.913Z,966.3
2019-03-15T09:53:08.131Z,966.2
2019-03-15T09:54:12.127Z,966.2
2019-03-15T09:55:14.265Z,965.9
2019-03-15T09:56:16.496Z,966.2
2019-03-15T09:57:20.180Z,966.2
2019-03-15T09:58:21.435Z,966.1
2019-03-15T09:59:23.661Z,966.1
2019-03-15T10:00:25.335Z,966.1
2019-03-15T10:01:35.778Z,966.2
2019-03-15T10:02:37.059Z,966.1
2019-03-15T10:03:38.336Z,966
2019-03-15T10:04:47.645Z,966.1
2019-03-15T10:05:51.567Z,966.1
2019-03-15T10:06:53.007Z,965.9
2019-03-15T10:07:54.280Z,966
2019-03-15T10:08:55.558Z,966
2019-03-15T10:09:56.820Z,965.9
2019-03-15T10:10:58.153Z,965.8
2019-03-15T10:11:59.454Z,965.9
2019-03-15T10:13:06.943Z,965.9
2019-03-15T10:14:08.439Z,965.9
2019-03-15T10:15:09.699Z,965.9
2019-03-15T10:16:15.864Z,965.9
2019-03-15T10:17:17.145Z,966
2019-03-15T10:18:18.415Z,966
2019-03-15T10:19:19.696Z,966
2019-03-15T10:20:20.954Z,966.1
2019-03-15T10:21:22.312Z,966
2019-03-15T10:22:23.817Z,965.9
2019-03-15T10:23:28.488Z,965.9
2019-03-15T10:24:30.017Z,965.9
2019-03-15T10:25:31.323Z,965.8
2019-03-15T10:26:33.582Z,965.9
2019-03-15T10:27:34.861Z,965.8
2019-03-15T10:28:39.296Z,965.8
2019-03-15T10:29:40.618Z,965.8
2019-03-15T10:30:43.122Z,965.7
2019-03-15T10:31:47.502Z,965.8
2019-03-15T10:32:49.428Z,965.7
2019-03-15T10:33:51.649Z,965.7
2019-03-15T10:34:54.100Z,965.7
2019-03-15T10:35:57.492Z,965.7
2019-03-15T10:36:59.288Z,965.7
2019-03-15T10:38:00.551Z,965.6
2019-03-15T10:39:02.136Z,965.6
2019-03-15T10:40:03.392Z,965.7
2019-03-15T10:41:04.662Z,965.6
2019-03-15T10:42:06.193Z,965.5
2019-03-15T10:43:07.461Z,965.5
2019-03-15T10:44:13.560Z,965.5
2019-03-15T10:45:17.308Z,965.6
2019-03-15T10:46:29.113Z,965.4
2019-03-15T10:47:30.773Z,965.4
2019-03-15T10:48:32.204Z,965.3
2019-03-15T10:49:33.482Z,965.4
2019-03-15T10:50:39.500Z,965.2
2019-03-15T10:51:48.041Z,965.2
2019-03-15T10:52:53.405Z,965.3
2019-03-15T10:53:55.996Z,965.2
2019-03-15T10:54:57.282Z,965.1
2019-03-15T10:56:01.269Z,965.2
2019-03-15T10:57:04.634Z,965.3
2019-03-15T10:58:08.427Z,965.2
2019-03-15T10:59:12.557Z,965.3
2019-03-15T11:00:18.773Z,965.2
2019-03-15T11:01:22.494Z,965.2
2019-03-15T11:02:24.885Z,965.2
2019-03-15T11:03:27.231Z,965.1
2019-03-15T11:04:28.511Z,965.2
2019-03-15T11:05:30.112Z,965.1
2019-03-15T11:06:31.401Z,965.2
2019-03-15T11:07:32.689Z,965.2
2019-03-15T11:08:37.346Z,965.2
2019-03-15T11:09:38.620Z,965.2
2019-03-15T11:10:42.352Z,965.1
2019-03-15T11:11:47.337Z,965.2
2019-03-15T11:12:48.618Z,965.1
2019-03-15T11:13:49.966Z,965
2019-03-15T11:14:51.249Z,965.1
2019-03-15T11:15:52.828Z,965
2019-03-15T11:16:57.317Z,965.1
2019-03-15T11:17:59.933Z,965
2019-03-15T11:19:01.228Z,965
2019-03-15T11:20:02.557Z,965
2019-03-15T11:21:03.845Z,965
2019-03-15T11:22:06.700Z,965.1
2019-03-15T11:23:08.203Z,964.9
2019-03-15T11:24:10.838Z,964.9
2019-03-15T11:25:12.238Z,965
2019-03-15T11:26:14.843Z,965
2019-03-15T11:27:16.122Z,965
2019-03-15T11:28:17.389Z,964.9
2019-03-15T11:29:18.699Z,964.9
2019-03-15T11:30:19.963Z,964.8
2019-03-15T11:31:22.357Z,964.8
2019-03-15T11:32:24.947Z,964.8
2019-03-15T11:33:27.386Z,964.8
2019-03-15T11:34:28.684Z,964.9
2019-03-15T11:35:32.819Z,964.8
2019-03-15T11:36:34.096Z,964.9
2019-03-15T11:37:35.376Z,964.8
2019-03-15T11:38:36.677Z,964.8
2019-03-15T11:39:38.008Z,964.9
2019-03-15T11:40:39.265Z,964.7
2019-03-15T11:41:40.557Z,964.8
2019-03-15T11:42:43.552Z,964.7
2019-03-15T11:43:49.217Z,964.7
2019-03-15T11:44:50.605Z,964.7
2019-03-15T11:45:53.939Z,964.7
2019-03-15T11:46:55.329Z,964.7
2019-03-15T11:48:08.558Z,964.7
2019-03-15T11:49:13.483Z,964.6
2019-03-15T11:50:17.231Z,964.6
2019-03-15T11:51:19.511Z,964.6
2019-03-15T11:52:23.196Z,964.6
2019-03-15T11:53:25.883Z,964.6
2019-03-15T11:54:27.145Z,964.6
2019-03-15T11:55:28.464Z,964.7
2019-03-15T11:56:29.879Z,964.6
2019-03-15T11:57:31.161Z,964.7
2019-03-15T11:58:32.537Z,964.8
2019-03-15T11:59:36.881Z,964.7
2019-03-15T12:00:38.262Z,964.6
2019-03-15T12:01:42.259Z,964.7
2019-03-15T12:02:44.819Z,964.7
2019-03-15T12:03:54.127Z,964.7
2019-03-15T12:04:55.401Z,964.7
2019-03-15T12:05:56.713Z,964.6
2019-03-15T12:06:58.339Z,964.6
2019-03-15T12:07:59.599Z,964.7
2019-03-15T12:09:00.873Z,964.7
2019-03-15T12:10:05.343Z,964.7
2019-03-15T12:11:06.951Z,964.6
2019-03-15T12:12:08.287Z,964.6
2019-03-15T12:13:09.585Z,964.6
2019-03-15T12:14:10.855Z,964.6
2019-03-15T12:15:12.751Z,964.5
2019-03-15T12:16:14.297Z,964.5
2019-03-15T12:17:15.644Z,964.5
2019-03-15T12:18:16.930Z,964.4
2019-03-15T12:19:18.191Z,964.4
2019-03-15T12:20:19.463Z,964.3
2019-03-15T12:21:20.777Z,964.4
2019-03-15T12:22:22.067Z,964.5
2019-03-15T12:23:23.358Z,964.4
2019-03-15T12:24:24.947Z,964.5
2019-03-15T12:25:26.247Z,964.4
2019-03-15T12:26:40.757Z,964.4
2019-03-15T12:27:45.236Z,964.3
2019-03-15T12:28:46.707Z,964.3
2019-03-15T12:29:48.251Z,964.3
2019-03-15T12:30:50.889Z,964.4
2019-03-15T12:31:52.323Z,964.4
2019-03-15T12:32:53.594Z,964.3
2019-03-15T12:33:56.077Z,964.2
2019-03-15T12:34:57.343Z,964.2
2019-03-15T12:35:58.616Z,964.3
2019-03-15T12:37:00.181Z,964.3
2019-03-15T12:38:01.988Z,964.3
2019-03-15T12:39:03.296Z,964.2
2019-03-15T12:40:05.854Z,964.1
2019-03-15T12:41:07.495Z,964.2
2019-03-15T12:42:08.982Z,964.3
2019-03-15T12:43:12.421Z,964.2
2019-03-15T12:44:13.692Z,964.2
2019-03-15T12:45:15.230Z,964.1
2019-03-15T12:46:16.509Z,964.2
2019-03-15T12:47:20.274Z,964.2
2019-03-15T12:48:22.637Z,964.3
2019-03-15T12:49:26.281Z,964.3
2019-03-15T12:50:27.558Z,964.3
2019-03-15T12:51:35.215Z,964.3
2019-03-15T12:52:48.424Z,964.3
2019-03-15T12:53:50.137Z,964.3
2019-03-15T12:54:55.385Z,964.2
2019-03-15T12:55:56.660Z,964.2
2019-03-15T12:56:57.990Z,964.3
2019-03-15T12:58:01.142Z,964.2
2019-03-15T12:59:04.516Z,964.2
2019-03-15T13:00:05.801Z,964.3
2019-03-15T13:01:07.425Z,964.2
2019-03-15T13:02:09.153Z,964.3
2019-03-15T13:03:13.389Z,964.2
2019-03-15T13:04:16.880Z,964.2
2019-03-15T13:05:33.741Z,964.2
2019-03-15T13:06:35.240Z,964.2
2019-03-15T13:07:36.849Z,964.2
2019-03-15T13:08:38.209Z,964.1
2019-03-15T13:09:42.373Z,964.3
2019-03-15T13:10:46.278Z,964.4
2019-03-15T13:11:49.955Z,964.3
2019-03-15T13:12:51.800Z,964.3
2019-03-15T13:13:53.246Z,964.3
2019-03-15T13:14:54.518Z,964.2
2019-03-15T13:15:55.770Z,964.3
2019-03-15T13:16:57.734Z,964.2
2019-03-15T13:18:02.204Z,964.2
2019-03-15T13:19:03.534Z,964.1
2019-03-15T13:20:04.834Z,964.1
2019-03-15T13:21:06.532Z,964.2
2019-03-15T13:22:10.314Z,964.2
2019-03-15T13:23:11.990Z,964.1
2019-03-15T13:24:13.595Z,964.2